Time;durP1;ratioP1;P1;durP2;ratioP2;P2;SDS_P1;SDS_P2;PMS_P1;PMS_P2;Temp;Humidity;BMP_temperature;BMP_pressure;BME280_temperature;BME280_humidity;BME280_pressure;Samples;Min_cycle;Max_cycle;Signal;HPM_P1;HPM_P2
2021/05/02 00:01:07;;;;;;;17.05;8.75;;;;;;;5.65;95.65;94619.63;5034979;28;20491;-66
2021/05/02 00:03:33;;;;;;;23.90;9.63;;;;;;;5.68;95.71;94623.53;5043072;28;20041;-66
2021/05/02 00:05:59;;;;;;;15.95;9.02;;;;;;;5.63;95.94;94639.97;5031336;28;20037;-66
2021/05/02 00:08:27;;;;;;;15.43;9.18;;;;;;;5.68;95.51;94632.13;5023811;28;20531;-68
2021/05/02 00:10:53;;;;;;;16.33;8.30;;;;;;;5.72;95.22;94633.19;5033521;28;20060;-67
2021/05/02 00:13:19;;;;;;;11.43;6.63;;;;;;;5.69;95.17;94644.16;5038978;28;20391;-66
2021/05/02 00:15:45;;;;;;;15.18;8.27;;;;;;;5.67;95.42;94646.22;5029760;28;20044;-66
2021/05/02 00:18:11;;;;;;;10.65;6.55;;;;;;;5.63;94.29;94655.66;5017858;28;20041;-67
2021/05/02 00:20:37;;;;;;;9.85;5.40;;;;;;;5.62;93.97;94654.06;5031145;28;20065;-67
2021/05/02 00:23:04;;;;;;;8.38;3.97;;;;;;;5.53;93.12;94650.38;5032414;28;20045;-67
2021/05/02 00:25:32;;;;;;;7.18;3.92;;;;;;;5.45;93.80;94658.72;5030269;28;20038;-67
2021/05/02 00:28:07;;;;;;;10.55;5.10;;;;;;;5.33;94.03;94662.34;5032614;28;20057;-67
2021/05/02 00:30:32;;;;;;;;;;;;;;;5.30;94.73;94662.88;5027397;28;20115;-67
2021/05/02 00:33:00;;;;;;;10.65;5.72;;;;;;;5.34;95.10;94663.94;5032535;28;19925;-67
2021/05/02 00:35:26;;;;;;;13.23;6.78;;;;;;;5.38;95.27;94675.41;5030006;28;20045;-68
2021/05/02 00:37:53;;;;;;;9.70;5.80;;;;;;;5.49;94.29;94675.44;5031271;28;20072;-67
2021/05/02 00:40:25;;;;;;;15.73;5.85;;;;;;;5.37;95.16;94679.06;5035552;28;20065;-67
2021/05/02 00:42:53;;;;;;;9.18;5.50;;;;;;;5.46;94.47;94686.38;5032090;28;20041;-67
2021/05/02 00:45:24;;;;;;;12.75;7.20;;;;;;;5.37;95.15;94691.31;5031467;28;20086;-68
2021/05/02 00:47:58;;;;;;;14.75;6.80;;;;;;;5.49;94.90;94688.50;5026304;28;20043;-68
2021/05/02 00:50:28;;;;;;;15.98;8.30;;;;;;;5.40;95.80;94693.41;5031117;28;20052;-67
2021/05/02 00:53:12;;;;;;;17.58;8.55;;;;;;;5.48;95.71;94697.34;5033172;28;20384;-67
2021/05/02 00:55:45;;;;;;;14.80;7.38;;;;;;;5.47;95.59;94703.59;5035037;28;20069;-66
2021/05/02 00:58:32;;;;;;;17.33;8.47;;;;;;;5.42;95.95;94701.00;5032682;28;20053;-67
2021/05/02 01:01:00;;;;;;;15.63;7.88;;;;;;;5.43;95.83;94718.22;5031447;28;20055;-67
2021/05/02 01:03:31;;;;;;;11.55;6.75;;;;;;;5.47;94.95;94724.47;5026250;28;20041;-67
2021/05/02 01:05:59;;;;;;;9.73;5.93;;;;;;;5.37;94.20;94739.06;5031302;28;20068;-67
2021/05/02 01:08:28;;;;;;;11.10;6.43;;;;;;;5.26;94.36;94734.84;5033307;28;20116;-66
2021/05/02 01:10:58;;;;;;;7.43;4.90;;;;;;;5.27;93.96;94735.63;5039285;28;20069;-67
2021/05/02 01:13:26;;;;;;;8.45;5.38;;;;;;;5.16;94.26;94740.03;5029847;28;20353;-67
2021/05/02 01:15:54;;;;;;;9.13;5.38;;;;;;;5.10;94.65;94748.84;5030132;28;20394;-68
2021/05/02 01:18:20;;;;;;;8.65;5.38;;;;;;;5.09;94.69;94749.91;5031203;28;20116;-67
2021/05/02 01:20:46;;;;;;;12.30;6.03;;;;;;;4.98;94.59;94752.44;5034460;28;20041;-66
2021/05/02 01:23:18;;;;;;;10.80;6.10;;;;;;;4.99;94.80;94761.84;5030297;28;20517;-67
2021/05/02 01:25:44;;;;;;;12.23;6.38;;;;;;;4.94;95.37;94756.59;5025957;28;20049;-68
2021/05/02 01:28:11;;;;;;;12.90;6.80;;;;;;;4.95;95.01;94763.38;5026358;28;20045;-66
2021/05/02 01:30:37;;;;;;;9.25;5.82;;;;;;;4.99;94.17;94766.28;5030989;28;20056;-67
2021/05/02 01:33:04;;;;;;;10.50;6.00;;;;;;;4.99;94.97;94767.03;5031412;28;20056;-68
2021/05/02 01:35:30;;;;;;;8.07;4.70;;;;;;;5.01;93.37;94774.63;5013794;28;20038;-67
2021/05/02 01:37:56;;;;;;;7.30;4.55;;;;;;;4.95;93.50;94781.63;5019622;28;20042;-68
2021/05/02 01:40:22;;;;;;;6.03;3.92;;;;;;;4.78;93.63;94786.97;5028284;28;20033;-67
2021/05/02 01:42:48;;;;;;;5.18;3.22;;;;;;;4.63;93.08;94790.25;5030963;28;20046;-67
2021/05/02 01:45:14;;;;;;;6.93;3.63;;;;;;;4.59;94.04;94794.41;5036880;28;20076;-68
2021/05/02 01:47:47;;;;;;;5.22;3.47;;;;;;;4.57;93.63;94796.47;5030607;28;20033;-67
2021/05/02 01:50:15;;;;;;;5.50;3.45;;;;;;;4.58;94.50;94803.25;5030577;28;20508;-67
2021/05/02 01:52:48;;;;;;;6.40;3.67;;;;;;;4.51;93.63;94805.28;5030328;28;20527;-67
2021/05/02 01:55:15;;;;;;;5.72;2.92;;;;;;;4.56;93.08;94810.53;5030728;28;20561;-67
2021/05/02 01:57:45;;;;;;;5.82;3.22;;;;;;;4.48;94.27;94808.38;5029668;28;20044;-67
2021/05/02 02:00:25;;;;;;;4.13;2.90;;;;;;;4.44;93.24;94817.72;5029219;28;20490;-68
2021/05/02 02:02:59;;;;;;;5.60;3.45;;;;;;;4.43;94.14;94816.16;5032044;28;20086;-66
2021/05/02 02:05:25;;;;;;;5.53;3.03;;;;;;;4.39;94.36;94820.28;5026254;28;20037;-67
2021/05/02 02:07:51;;;;;;;7.20;3.28;;;;;;;4.35;94.54;94827.78;5026082;28;20107;-67
2021/05/02 02:10:19;;;;;;;3.78;2.38;;;;;;;4.34;94.14;94824.41;5023740;28;20442;-68
2021/05/02 02:12:46;;;;;;;4.25;2.67;;;;;;;4.41;93.54;94823.41;5029146;28;20037;-67
2021/05/02 02:15:14;;;;;;;3.65;2.47;;;;;;;4.42;93.36;94830.22;5030081;28;20121;-67
2021/05/02 02:17:39;;;;;;;4.68;2.40;;;;;;;4.31;92.87;94835.34;5019747;28;20046;-68
2021/05/02 02:20:06;;;;;;;3.38;2.30;;;;;;;4.32;93.50;94842.13;5028155;28;20396;-67
2021/05/02 02:22:40;;;;;;;4.55;2.08;;;;;;;4.29;92.90;94842.59;5030581;28;20257;-67
2021/05/02 02:25:08;;;;;;;3.53;2.17;;;;;;;4.31;93.71;94842.34;5033010;28;20132;-67
2021/05/02 02:27:34;;;;;;;4.60;1.67;;;;;;;4.21;92.75;94845.66;5031704;28;20305;-67
2021/05/02 02:30:08;;;;;;;6.30;2.30;;;;;;;4.11;94.34;94840.34;5038536;28;20042;-67
2021/05/02 02:32:41;;;;;;;3.13;1.92;;;;;;;4.11;93.10;94855.97;5041678;28;20048;-67
2021/05/02 02:35:08;;;;;;;3.13;1.92;;;;;;;4.07;93.53;94854.88;5029248;28;20132;-67
2021/05/02 02:37:37;;;;;;;3.22;1.83;;;;;;;4.03;93.60;94853.78;5017107;28;20112;-67
2021/05/02 02:40:05;;;;;;;2.70;1.60;;;;;;;4.04;92.83;94863.97;5023320;28;20037;-67
2021/05/02 02:42:35;;;;;;;2.42;1.80;;;;;;;3.96;93.61;94865.16;5022882;28;20418;-67
2021/05/02 02:45:09;;;;;;;2.88;1.80;;;;;;;4.07;92.98;94870.50;5041346;28;20048;-67
2021/05/02 02:47:38;;;;;;;2.17;1.70;;;;;;;3.95;93.48;94874.03;5025113;28;20037;-67
2021/05/02 02:50:09;;;;;;;3.85;1.60;;;;;;;3.97;93.84;94879.75;5034013;28;20410;-67
2021/05/02 02:52:55;;;;;;;1.98;1.45;;;;;;;3.92;93.57;94884.13;5031642;28;20057;-68
2021/05/02 02:55:23;;;;;;;2.28;1.75;;;;;;;3.88;94.15;94883.81;5022995;28;20037;-67
2021/05/02 02:57:51;;;;;;;1.77;1.45;;;;;;;3.88;92.83;94894.25;5023227;28;20046;-66
2021/05/02 03:00:26;;;;;;;2.03;1.40;;;;;;;3.80;92.79;94902.47;5029051;28;20056;-68
2021/05/02 03:03:13;;;;;;;2.15;1.55;;;;;;;3.77;92.75;94897.75;5026631;28;20183;-67
2021/05/02 03:05:41;;;;;;;2.30;1.60;;;;;;;3.75;94.59;94907.59;5041929;28;20063;-67
2021/05/02 03:08:09;;;;;;;1.80;1.50;;;;;;;3.62;93.80;94912.13;5031255;28;20407;-67
2021/05/02 03:10:35;;;;;;;1.70;1.40;;;;;;;3.61;92.92;94910.53;5041149;28;20049;-67
2021/05/02 03:13:02;;;;;;;2.30;1.60;;;;;;;3.43;93.80;94913.41;5030042;28;20144;-67
2021/05/02 03:15:29;;;;;;;2.28;1.52;;;;;;;3.44;93.84;94907.19;5029591;28;20254;-67
2021/05/02 03:18:14;;;;;;;1.67;1.40;;;;;;;3.47;94.04;94909.31;5023081;28;20280;-67
2021/05/02 03:20:44;;;;;;;2.00;1.50;;;;;;;3.48;93.08;94926.50;5028696;28;20041;-67
2021/05/02 03:23:17;;;;;;;1.40;1.30;;;;;;;3.42;92.28;94922.22;5020990;28;20041;-67
2021/05/02 03:25:46;;;;;;;2.83;1.17;;;;;;;3.36;93.62;94928.38;5036478;28;20045;-67
2021/05/02 03:28:49;;;;;;;1.85;1.30;;;;;;;3.32;93.57;94937.69;5034356;28;20116;-67
2021/05/02 03:31:16;;;;;;;1.70;1.30;;;;;;;3.29;93.59;94934.53;5036424;28;20049;-67
2021/05/02 03:33:47;;;;;;;3.40;1.33;;;;;;;3.25;93.35;94938.63;5028148;28;20048;-67
2021/05/02 03:36:16;;;;;;;1.48;1.27;;;;;;;3.25;92.07;94949.03;5016557;28;20045;-67
2021/05/02 03:38:50;;;;;;;2.15;1.67;;;;;;;3.21;93.78;94953.13;5028788;28;20037;-67
2021/05/02 03:41:17;;;;;;;2.60;1.73;;;;;;;3.25;93.60;94959.44;5036016;28;20044;-67
2021/05/02 03:43:43;;;;;;;1.45;1.33;;;;;;;3.24;92.89;94957.84;5030080;28;20037;-67
2021/05/02 03:46:23;;;;;;;1.70;1.55;;;;;;;3.24;93.33;94962.28;5022699;28;20049;-68
2021/05/02 03:48:52;;;;;;;1.67;1.30;;;;;;;3.18;93.33;94971.81;5031826;28;20057;-67
2021/05/02 03:51:18;;;;;;;1.42;1.05;;;;;;;3.14;92.62;94975.91;5039470;28;20122;-67
2021/05/02 03:53:44;;;;;;;2.10;1.55;;;;;;;3.11;93.71;94973.78;5035063;28;20512;-68
2021/05/02 03:56:09;;;;;;;2.55;1.65;;;;;;;3.12;94.14;94983.16;5035457;28;20095;-68
2021/05/02 03:58:35;;;;;;;1.40;1.20;;;;;;;3.18;93.45;94987.41;5036931;28;20406;-67
2021/05/02 04:01:00;;;;;;;3.25;1.80;;;;;;;3.17;94.20;94985.06;5032508;28;20053;-68
2021/05/02 04:03:26;;;;;;;2.17;1.65;;;;;;;3.20;94.13;94989.78;5027576;28;20087;-67
2021/05/02 04:05:51;;;;;;;4.22;2.03;;;;;;;3.20;92.97;94998.34;5031045;28;20038;-68
2021/05/02 04:08:17;;;;;;;3.28;2.03;;;;;;;3.21;93.96;94999.94;5024573;28;20527;-68
2021/05/02 04:10:42;;;;;;;3.10;2.08;;;;;;;3.22;92.87;95006.72;5032869;28;20083;-67
2021/05/02 04:13:08;;;;;;;3.35;2.17;;;;;;;3.20;93.73;95008.75;5032457;28;20045;-67
2021/05/02 04:15:33;;;;;;;3.58;2.25;;;;;;;3.15;93.58;95016.50;5030589;28;20511;-67
2021/05/02 04:17:59;;;;;;;3.42;2.40;;;;;;;3.15;93.75;95026.88;5041415;28;20045;-67
2021/05/02 04:20:24;;;;;;;4.57;2.50;;;;;;;3.20;93.77;95033.97;5031576;28;20099;-67
2021/05/02 04:22:50;;;;;;;4.00;2.38;;;;;;;3.19;94.14;95043.59;5028813;28;20272;-67
2021/05/02 04:25:16;;;;;;;4.03;2.63;;;;;;;3.12;94.03;95048.16;5033023;28;20038;-68
2021/05/02 04:27:41;;;;;;;5.82;3.35;;;;;;;3.19;94.32;95051.41;5040856;28;20042;-68
2021/05/02 04:30:07;;;;;;;5.45;2.90;;;;;;;3.24;94.48;95059.28;5033511;28;20049;-68
2021/05/02 04:32:33;;;;;;;4.95;3.08;;;;;;;3.26;94.14;95062.44;5013448;28;20050;-67
2021/05/02 04:34:58;;;;;;;5.25;3.20;;;;;;;3.23;94.32;95065.53;5028325;28;20046;-66
2021/05/02 04:37:24;;;;;;;5.30;3.20;;;;;;;3.25;94.69;95073.09;5027671;28;20045;-68
2021/05/02 04:39:49;;;;;;;4.43;3.05;;;;;;;3.28;93.42;95072.63;5026660;28;20483;-68
2021/05/02 04:42:15;;;;;;;5.25;3.05;;;;;;;3.29;93.49;95085.38;5042157;28;20049;-68
2021/05/02 04:44:41;;;;;;;6.32;3.88;;;;;;;3.24;93.62;95085.28;5044431;28;20041;-67
2021/05/02 04:47:06;;;;;;;7.60;4.22;;;;;;;3.24;93.83;95093.09;5040080;28;20117;-67
2021/05/02 04:49:32;;;;;;;7.70;4.63;;;;;;;3.17;93.89;95097.63;5032509;28;20053;-68
2021/05/02 04:51:58;;;;;;;7.88;4.60;;;;;;;3.15;93.86;95104.91;5031714;28;20053;-68
2021/05/02 04:54:24;;;;;;;5.95;3.72;;;;;;;3.16;92.69;95101.28;5032270;28;20045;-67
2021/05/02 04:56:49;;;;;;;8.20;4.65;;;;;;;3.13;94.03;95117.31;5024559;28;20136;-68
2021/05/02 04:59:15;;;;;;;7.85;4.60;;;;;;;3.18;93.30;95114.81;5039801;28;20049;-68
2021/05/02 05:01:43;;;;;;;7.18;4.28;;;;;;;3.23;93.08;95116.72;5032610;28;20072;-67
2021/05/02 05:04:09;;;;;;;7.55;4.28;;;;;;;3.23;95.18;95125.34;5031514;28;20048;-67
2021/05/02 05:06:35;;;;;;;8.88;3.92;;;;;;;3.19;92.79;95121.63;5028392;28;20127;-67
2021/05/02 05:09:01;;;;;;;6.18;4.07;;;;;;;3.21;94.54;95129.97;5030377;28;20054;-68
2021/05/02 05:11:27;;;;;;;5.05;3.45;;;;;;;3.19;92.82;95129.41;5030205;28;20046;-67
2021/05/02 05:13:52;;;;;;;5.93;3.83;;;;;;;3.17;92.95;95128.84;5025606;28;20396;-67
2021/05/02 05:16:18;;;;;;;5.28;3.25;;;;;;;3.19;93.03;95142.41;5027355;28;20477;-67
2021/05/02 05:18:44;;;;;;;4.28;2.90;;;;;;;3.13;93.31;95145.94;5019831;28;20391;-67
2021/05/02 05:21:10;;;;;;;5.47;3.65;;;;;;;3.15;93.62;95151.69;5013943;28;20038;-67
2021/05/02 05:23:35;;;;;;;4.32;2.85;;;;;;;3.11;92.79;95150.56;5028630;28;20041;-67
2021/05/02 05:26:01;;;;;;;6.72;4.28;;;;;;;3.05;93.50;95157.50;5029345;28;20107;-67
2021/05/02 05:28:27;;;;;;;5.82;3.70;;;;;;;3.11;93.82;95155.78;5017971;28;20045;-67
2021/05/02 05:30:54;;;;;;;5.68;3.63;;;;;;;3.07;94.08;95154.66;5031067;28;20048;-67
2021/05/02 05:33:20;;;;;;;3.15;2.10;;;;;;;3.10;93.30;95159.38;5027725;28;20107;-67
2021/05/02 05:35:46;;;;;;;3.40;2.38;;;;;;;3.06;93.57;95163.47;5030658;28;20040;-67
2021/05/02 05:38:13;;;;;;;3.20;2.15;;;;;;;3.04;93.11;95161.09;5023272;28;20037;-67
2021/05/02 05:40:39;;;;;;;2.80;1.65;;;;;;;2.97;92.76;95170.06;5031191;28;20422;-67
2021/05/02 05:43:05;;;;;;;2.83;1.95;;;;;;;2.99;93.50;95174.00;5031230;28;20037;-67
2021/05/02 05:45:32;;;;;;;2.40;1.75;;;;;;;2.97;93.58;95175.25;5027080;28;20518;-67
2021/05/02 05:47:58;;;;;;;3.33;2.10;;;;;;;2.93;93.34;95178.31;5029029;28;20090;-67
2021/05/02 05:50:25;;;;;;;3.33;1.83;;;;;;;2.91;93.38;95175.13;5029846;28;20045;-67
2021/05/02 05:52:51;;;;;;;5.95;2.40;;;;;;;2.94;94.34;95182.50;5041703;28;20037;-67
2021/05/02 05:55:19;;;;;;;4.05;2.40;;;;;;;2.87;93.55;95192.19;5031528;28;20046;-67
2021/05/02 05:57:46;;;;;;;4.03;2.40;;;;;;;2.79;93.04;95182.19;5030456;28;20294;-68
2021/05/02 06:00:12;;;;;;;4.60;2.95;;;;;;;2.73;94.27;95185.66;5023673;28;20041;-68
2021/05/02 06:02:38;;;;;;;4.00;2.67;;;;;;;2.82;94.05;95184.31;5027956;28;20601;-67
2021/05/02 06:05:04;;;;;;;4.65;3.10;;;;;;;2.91;92.97;95198.53;5033376;28;20052;-68
2021/05/02 06:07:30;;;;;;;6.05;3.40;;;;;;;2.86;94.69;95195.03;5025214;28;20053;-67
2021/05/02 06:09:56;;;;;;;7.03;3.92;;;;;;;2.90;93.37;95207.38;5030709;28;20064;-68
2021/05/02 06:12:21;;;;;;;5.03;3.53;;;;;;;2.91;93.18;95197.75;5038451;28;20042;-68
2021/05/02 06:14:47;;;;;;;5.38;3.70;;;;;;;2.94;92.30;95202.50;5042257;28;20116;-67
2021/05/02 06:17:13;;;;;;;5.90;4.00;;;;;;;2.98;92.70;95208.03;5027874;28;20514;-68
2021/05/02 06:19:39;;;;;;;7.85;4.65;;;;;;;3.03;93.64;95213.31;5030603;28;20038;-68
2021/05/02 06:22:05;;;;;;;7.88;5.22;;;;;;;3.12;93.16;95224.97;5029952;28;20067;-68
2021/05/02 06:24:30;;;;;;;6.13;4.10;;;;;;;3.09;90.30;95221.00;5027294;28;20038;-67
2021/05/02 06:26:56;;;;;;;8.45;5.53;;;;;;;3.07;92.83;95222.25;5019743;28;20104;-67
2021/05/02 06:29:22;;;;;;;6.97;4.93;;;;;;;3.07;91.63;95219.66;5038621;28;20044;-67
2021/05/02 06:31:48;;;;;;;8.50;5.30;;;;;;;3.20;92.40;95227.19;5033514;28;20051;-67
2021/05/02 06:34:14;;;;;;;7.93;5.50;;;;;;;3.16;92.89;95220.91;5041545;28;20041;-68
2021/05/02 06:36:41;;;;;;;8.18;5.78;;;;;;;3.26;93.26;95225.47;5029543;28;20037;-67
2021/05/02 06:39:08;;;;;;;8.80;5.90;;;;;;;3.29;92.75;95241.44;5028895;28;20048;-68
2021/05/02 06:41:36;;;;;;;9.48;6.22;;;;;;;3.27;93.11;95242.69;5030283;28;20502;-68
2021/05/02 06:44:03;;;;;;;10.90;6.72;;;;;;;3.30;93.30;95242.22;5029941;28;20049;-67
2021/05/02 06:46:29;;;;;;;11.95;7.22;;;;;;;3.33;93.70;95246.19;5028128;28;20038;-68
2021/05/02 06:48:57;;;;;;;11.00;7.30;;;;;;;3.29;92.80;95246.63;5031914;28;20037;-67
2021/05/02 06:51:23;;;;;;;10.48;6.82;;;;;;;3.36;93.12;95256.94;5029425;28;20111;-68
2021/05/02 06:53:49;;;;;;;10.68;7.10;;;;;;;3.37;93.07;95265.50;5037232;28;20049;-68
2021/05/02 06:56:15;;;;;;;11.00;7.55;;;;;;;3.33;92.39;95261.78;5018663;28;20041;-68
2021/05/02 06:58:40;;;;;;;12.82;8.02;;;;;;;3.44;93.32;95263.56;5030271;28;20041;-68
2021/05/02 07:01:06;;;;;;;14.90;9.15;;;;;;;3.40;93.33;95271.03;5038450;28;20060;-66
2021/05/02 07:03:32;;;;;;;13.20;8.30;;;;;;;3.40;93.03;95283.25;5034719;28;20041;-67
2021/05/02 07:05:58;;;;;;;15.40;9.40;;;;;;;3.38;93.57;95285.31;5025144;28;20053;-67
2021/05/02 07:08:24;;;;;;;17.00;10.00;;;;;;;3.43;93.62;95282.78;5026513;28;20053;-68
2021/05/02 07:10:50;;;;;;;17.30;10.35;;;;;;;3.50;94.27;95283.47;5028098;28;20060;-68
2021/05/02 07:13:16;;;;;;;18.55;10.93;;;;;;;3.53;94.06;95288.19;5033858;28;20510;-67
2021/05/02 07:15:42;;;;;;;21.25;11.23;;;;;;;3.57;94.15;95286.72;5032420;28;20502;-68
2021/05/02 07:18:08;;;;;;;19.23;11.25;;;;;;;3.63;94.43;95293.63;5020194;28;20103;-68
2021/05/02 07:20:34;;;;;;;19.35;11.18;;;;;;;3.63;94.56;95293.63;5025812;28;20045;-68
2021/05/02 07:23:00;;;;;;;17.33;10.80;;;;;;;3.77;93.96;95304.53;5029423;28;20187;-68
2021/05/02 07:25:26;;;;;;;16.90;9.65;;;;;;;3.71;93.35;95296.88;5029750;28;20607;-68
2021/05/02 07:27:53;;;;;;;19.33;11.80;;;;;;;3.64;93.08;95295.19;5039557;28;20041;-68
2021/05/02 07:30:20;;;;;;;18.35;11.32;;;;;;;3.74;93.54;95293.81;5033538;28;20045;-68
2021/05/02 07:32:46;;;;;;;15.85;9.85;;;;;;;3.73;93.94;95297.44;5034137;28;20415;-68
2021/05/02 07:35:12;;;;;;;20.13;11.52;;;;;;;3.82;93.58;95301.25;5034499;28;20042;-68
2021/05/02 07:37:38;;;;;;;15.07;9.45;;;;;;;3.89;92.48;95312.31;5024476;28;20049;-68
2021/05/02 07:40:06;;;;;;;14.65;9.77;;;;;;;3.94;92.16;95309.81;5023236;28;20052;-68
2021/05/02 07:42:32;;;;;;;25.13;12.10;;;;;;;3.82;93.70;95314.25;5031586;28;20091;-67
2021/05/02 07:44:58;;;;;;;16.88;10.77;;;;;;;3.73;92.47;95320.88;5035014;28;20041;-68
2021/05/02 07:47:24;;;;;;;16.40;11.38;;;;;;;3.78;92.58;95331.38;5040777;28;20060;-68
2021/05/02 07:49:50;;;;;;;22.60;13.52;;;;;;;3.85;93.85;95337.25;5031257;28;20041;-68
2021/05/02 07:52:16;;;;;;;23.00;14.07;;;;;;;3.86;93.56;95343.25;5027413;28;20045;-68
2021/05/02 07:54:42;;;;;;;23.67;14.85;;;;;;;3.72;92.83;95342.69;5030857;28;20038;-67
2021/05/02 07:57:08;;;;;;;22.25;13.80;;;;;;;3.85;92.80;95346.84;5040274;28;20049;-69
2021/05/02 07:59:34;;;;;;;21.50;13.35;;;;;;;3.88;93.15;95347.19;5034755;28;20037;-69
2021/05/02 08:01:59;;;;;;;22.52;13.55;;;;;;;3.94;92.60;95355.91;5032746;28;20546;-69
2021/05/02 08:04:25;;;;;;;21.65;12.65;;;;;;;4.04;92.37;95353.50;5029567;28;20043;-69
2021/05/02 08:06:51;;;;;;;22.08;13.27;;;;;;;4.01;92.55;95358.34;5031207;28;20511;-68
2021/05/02 08:09:16;;;;;;;21.02;13.45;;;;;;;4.07;92.72;95360.06;5028085;28;20049;-69
2021/05/02 08:11:42;;;;;;;21.92;13.63;;;;;;;4.20;93.60;95364.97;5033477;28;20069;-69
2021/05/02 08:14:08;;;;;;;20.95;12.43;;;;;;;4.37;91.64;95367.66;5032286;28;20075;-68
2021/05/02 08:16:34;;;;;;;20.80;12.45;;;;;;;4.32;91.31;95373.56;5026612;28;20038;-69
2021/05/02 08:19:01;;;;;;;20.40;13.18;;;;;;;4.23;93.34;95380.16;5032946;28;20045;-69
2021/05/02 08:21:28;;;;;;;19.85;12.77;;;;;;;4.21;92.84;95389.22;5033034;28;20041;-70
2021/05/02 08:23:55;;;;;;;28.10;14.95;;;;;;;4.08;93.91;95387.66;5028672;28;20038;-76
2021/05/02 08:26:20;;;;;;;24.20;15.05;;;;;;;4.08;93.75;95392.88;5024580;28;20521;-71
2021/05/02 08:28:46;;;;;;;23.17;14.30;;;;;;;4.06;93.23;95389.72;5029353;28;20041;-66
2021/05/02 08:31:12;;;;;;;26.40;14.60;;;;;;;4.17;93.61;95396.72;5033112;28;20107;-67
2021/05/02 08:33:38;;;;;;;18.88;12.50;;;;;;;4.13;91.33;95401.56;5031657;28;20165;-68
2021/05/02 08:36:05;;;;;;;26.52;16.27;;;;;;;3.99;93.61;95405.47;5032019;28;20045;-67
2021/05/02 08:38:31;;;;;;;28.60;16.40;;;;;;;4.11;93.32;95413.25;5030689;28;20048;-68
2021/05/02 08:41:00;;;;;;;24.00;14.43;;;;;;;4.09;92.13;95410.09;5032456;28;20045;-67
2021/05/02 08:43:26;;;;;;;23.45;15.07;;;;;;;4.11;93.02;95413.25;5032520;28;20049;-67
2021/05/02 08:45:51;;;;;;;25.95;16.17;;;;;;;3.99;93.28;95415.88;5031454;28;20068;-66
2021/05/02 08:48:21;;;;;;;26.77;16.83;;;;;;;3.93;93.66;95414.97;5028687;28;20037;-66
2021/05/02 08:50:49;;;;;;;27.45;15.85;;;;;;;4.05;93.48;95419.38;5028538;28;20388;-66
2021/05/02 08:53:15;;;;;;;25.50;16.73;;;;;;;3.96;91.82;95405.91;5031900;28;20054;-67
2021/05/02 08:55:42;;;;;;;28.42;18.48;;;;;;;3.93;92.89;95422.00;5018617;28;20419;-67
2021/05/02 08:58:15;;;;;;;30.10;19.85;;;;;;;4.02;92.18;95419.84;5027279;28;20045;-66
2021/05/02 09:00:41;;;;;;;31.65;19.48;;;;;;;3.95;92.04;95419.94;5028581;28;20076;-67
2021/05/02 09:03:07;;;;;;;29.05;18.58;;;;;;;4.20;91.00;95421.50;5031351;28;20103;-68
2021/05/02 09:05:46;;;;;;;34.53;20.58;;;;;;;4.20;90.73;95422.28;5023809;28;20040;-68
2021/05/02 09:08:32;;;;;;;27.05;18.75;;;;;;;4.22;91.26;95414.25;5020895;28;20034;-67
2021/05/02 09:10:59;;;;;;;28.77;19.35;;;;;;;4.23;90.83;95419.22;5030630;28;20488;-67
2021/05/02 09:13:25;;;;;;;34.40;20.02;;;;;;;4.10;91.76;95422.88;5036502;28;20041;-67
2021/05/02 09:16:06;;;;;;;36.80;23.25;;;;;;;3.99;92.38;95432.31;5042602;28;20102;-67
2021/05/02 09:18:37;;;;;;;30.58;19.65;;;;;;;3.85;92.85;95430.97;5019451;28;20042;-67
2021/05/02 09:21:29;;;;;;;32.90;20.10;;;;;;;3.95;93.54;95435.56;5028988;28;20056;-67
2021/05/02 09:23:56;;;;;;;28.60;18.02;;;;;;;4.03;93.11;95443.03;5025182;28;20061;-66
2021/05/02 09:26:35;;;;;;;26.42;17.08;;;;;;;4.07;93.04;95438.19;5041904;28;20564;-66
2021/05/02 09:29:05;;;;;;;34.78;20.40;;;;;;;4.03;93.60;95431.84;5043176;28;20049;-67
2021/05/02 09:31:33;;;;;;;36.90;20.48;;;;;;;4.43;93.09;95436.28;5030127;28;20041;-66
2021/05/02 09:34:18;;;;;;;27.00;17.63;;;;;;;4.61;90.78;95446.53;5024930;28;20064;-69
2021/05/02 09:36:57;;;;;;;33.53;20.10;;;;;;;4.85;90.96;95446.41;5037364;28;20098;-69
2021/05/02 09:39:52;;;;;;;38.25;22.75;;;;;;;4.91;91.18;95453.28;5030788;28;20049;-67
2021/05/02 09:42:19;;;;;;;;;;;;;;;4.77;91.20;95447.59;5030654;28;20045;-67
2021/05/02 09:45:05;;;;;;;31.17;18.45;;;;;;;4.66;91.16;95454.41;5042736;28;19921;-67
2021/05/02 09:47:39;;;;;;;35.25;21.50;;;;;;;4.57;92.65;95457.63;5034709;28;20060;-67
2021/05/02 09:50:08;;;;;;;37.42;22.60;;;;;;;4.51;92.76;95467.16;5030575;28;20067;-69
2021/05/02 09:52:56;;;;;;;29.80;19.35;;;;;;;4.36;91.96;95462.44;5029699;28;20052;-66
2021/05/02 09:55:25;;;;;;;24.83;16.63;;;;;;;4.06;91.46;95462.63;5026566;28;20061;-67
2021/05/02 09:58:11;;;;;;;27.27;16.85;;;;;;;4.16;91.63;95465.44;5031348;28;20052;-68
2021/05/02 10:00:50;;;;;;;31.42;18.55;;;;;;;4.48;90.78;95459.81;5032150;28;20080;-69
2021/05/02 10:03:16;;;;;;;24.55;15.90;;;;;;;4.66;89.97;95462.25;5030988;28;20499;-69
2021/05/02 10:05:59;;;;;;;28.05;18.23;;;;;;;4.42;91.99;95471.94;5022101;28;20507;-68
2021/05/02 10:08:27;;;;;;;26.10;16.55;;;;;;;4.58;91.12;95470.41;5033505;28;20049;-69
2021/05/02 10:10:53;;;;;;;36.85;21.77;;;;;;;4.55;93.80;95478.72;5032880;28;20092;-67
2021/05/02 10:13:19;;;;;;;23.20;15.30;;;;;;;4.59;89.54;95474.63;5031760;28;20045;-68
2021/05/02 10:15:45;;;;;;;28.00;17.60;;;;;;;4.64;91.37;95482.53;5029847;28;20041;-68
2021/05/02 10:18:11;;;;;;;28.17;18.48;;;;;;;4.74;92.12;95486.34;5025387;28;20123;-69
2021/05/02 10:20:36;;;;;;;21.85;15.43;;;;;;;4.71;89.71;95490.22;5029995;28;20499;-69
2021/05/02 10:23:03;;;;;;;25.95;15.27;;;;;;;4.86;90.89;95497.53;5031650;28;20064;-68
2021/05/02 10:25:29;;;;;;;23.80;16.20;;;;;;;4.87;90.99;95496.53;5030860;28;20048;-68
2021/05/02 10:27:56;;;;;;;19.60;13.50;;;;;;;5.12;88.34;95500.59;5029186;28;20060;-68
2021/05/02 10:30:28;;;;;;;22.10;15.07;;;;;;;5.14;90.04;95503.75;5030976;28;20049;-67
2021/05/02 10:33:13;;;;;;;22.15;14.23;;;;;;;5.60;88.07;95509.72;5031311;28;20041;-68
2021/05/02 10:35:47;;;;;;;19.95;14.07;;;;;;;5.47;89.09;95507.44;5028786;28;20041;-69
2021/05/02 10:38:18;;;;;;;20.13;14.07;;;;;;;5.45;87.73;95505.06;5027845;28;20041;-67
2021/05/02 10:40:44;;;;;;;21.73;14.95;;;;;;;5.27;87.58;95508.69;5029362;28;20547;-69
2021/05/02 10:43:26;;;;;;;24.40;15.25;;;;;;;5.22;90.76;95508.59;5022895;28;20049;-68
2021/05/02 10:45:54;;;;;;;22.05;14.48;;;;;;;5.15;89.18;95505.34;5010986;28;20034;-68
2021/05/02 10:48:22;;;;;;;22.02;14.77;;;;;;;5.34;88.71;95509.34;5015605;28;20044;-65
2021/05/02 10:50:54;;;;;;;24.00;16.23;;;;;;;5.32;87.67;95516.59;5027915;28;20112;-66
2021/05/02 10:53:24;;;;;;;19.67;13.98;;;;;;;5.32;88.55;95513.22;5030200;28;20042;-67
2021/05/02 10:55:53;;;;;;;24.92;16.15;;;;;;;5.75;86.81;95518.81;5024975;28;20057;-68
2021/05/02 10:58:40;;;;;;;24.55;17.27;;;;;;;6.03;85.19;95515.34;5030003;28;20450;-66
2021/05/02 11:01:10;;;;;;;18.45;11.70;;;;;;;5.93;84.75;95525.63;5033037;28;20048;-67
2021/05/02 11:03:38;;;;;;;22.85;14.30;;;;;;;5.35;89.07;95526.56;5029714;28;20429;-67
2021/05/02 11:06:03;;;;;;;22.15;15.70;;;;;;;5.59;88.95;95525.63;5014649;28;20112;-67
2021/05/02 11:08:45;;;;;;;22.45;16.58;;;;;;;5.34;90.14;95518.97;5018047;28;20074;-66
2021/05/02 11:11:50;;;;;;;23.88;16.55;;;;;;;5.55;88.62;95525.31;5033652;28;20049;-67
2021/05/02 11:14:15;;;;;;;25.23;17.38;;;;;;;5.42;87.99;95530.88;5032463;28;20119;-65
2021/05/02 11:16:42;;;;;;;35.67;21.05;;;;;;;5.74;89.94;95531.09;5025080;28;20053;-66
2021/05/02 11:19:09;;;;;;;28.60;18.33;;;;;;;5.86;88.18;95531.00;5030944;28;20044;-66
2021/05/02 11:21:50;;;;;;;30.48;19.75;;;;;;;5.70;87.92;95533.41;5033366;28;20041;-67
2021/05/02 11:24:23;;;;;;;27.25;19.17;;;;;;;5.61;88.44;95539.25;5026004;28;20069;-66
2021/05/02 11:27:05;;;;;;;28.38;19.65;;;;;;;5.60;88.04;95533.22;5031513;28;20049;-66
2021/05/02 11:32:12;;;;;;;29.13;19.65;;;;;;;5.71;86.25;95537.59;5028664;28;20046;-66
2021/05/02 11:34:52;;;;;;;28.40;18.70;;;;;;;5.88;85.93;95534.19;5024602;28;20103;-66
2021/05/02 11:37:36;;;;;;;25.48;18.40;;;;;;;5.61;86.75;95539.25;5030659;28;20037;-66
2021/05/02 11:40:28;;;;;;;33.97;22.83;;;;;;;6.06;90.53;95541.81;5035976;28;20064;-67
2021/05/02 11:42:53;;;;;;;29.27;20.98;;;;;;;5.91;88.56;95538.94;5032948;28;20132;-65
2021/05/02 11:45:23;;;;;;;31.45;21.65;;;;;;;5.69;88.14;95537.03;5032516;28;20435;-66